ěÝzenÝ letovÚho provozu ╚eskÚ republiky
Letiste: LKLN Aktualizace: 17.04.2021 20:55:25  UTC
 METAR LKLN 17.04. 21:00 ...
METAR LKLN 172100Z AUTO 27002KT 7000 -RA OVC014 03/03 Q1021=